Time;durP1;ratioP1;P1;durP2;ratioP2;P2;SDS_P1;SDS_P2;PMS_P1;PMS_P2;Temp;Humidity;BMP_temperature;BMP_pressure;BME280_temperature;BME280_humidity;BME280_pressure;Samples;Min_cycle;Max_cycle;Signal;HPM_P1;HPM_P2
2022/07/13 00:01:40;;;;;;;1.87;1.40;;;;;;;;;;5014771;28;20930;-68
2022/07/13 00:04:06;;;;;;;1.67;1.57;;;;;;;;;;5014571;28;20770;-68
2022/07/13 00:06:32;;;;;;;4.70;1.73;;;;;;;;;;5014795;28;20488;-67
2022/07/13 00:08:58;;;;;;;2.50;1.50;;;;;;;;;;5014397;28;20412;-68
2022/07/13 00:11:24;;;;;;;1.80;1.57;;;;;;;;;;5014519;28;20479;-66
2022/07/13 00:13:50;;;;;;;1.57;1.57;;;;;;;;;;5014595;28;20403;-67
2022/07/13 00:16:16;;;;;;;2.80;1.53;;;;;;;;;;5014403;28;20489;-67
2022/07/13 00:18:42;;;;;;;1.33;1.33;;;;;;;;;;5013211;28;20412;-67
2022/07/13 00:21:08;;;;;;;2.77;1.70;;;;;;;;;;5014467;28;20415;-68
2022/07/13 00:23:34;;;;;;;2.80;1.80;;;;;;;;;;5013799;28;20412;-68
2022/07/13 00:26:00;;;;;;;1.40;1.40;;;;;;;;;;5014358;28;20425;-68
2022/07/13 00:28:26;;;;;;;1.37;1.37;;;;;;;;;;5014298;28;20447;-68
2022/07/13 00:30:52;;;;;;;1.57;1.33;;;;;;;;;;5014347;28;20470;-68
2022/07/13 00:33:18;;;;;;;1.90;1.80;;;;;;;;;;5014268;28;20436;-68
2022/07/13 00:35:44;;;;;;;1.87;1.77;;;;;;;;;;5014503;28;20450;-68
2022/07/13 00:38:10;;;;;;;2.00;1.50;;;;;;;;;;5014249;28;20772;-66
2022/07/13 00:40:36;;;;;;;1.40;1.40;;;;;;;;;;5014212;28;20503;-66
2022/07/13 00:43:02;;;;;;;1.80;1.80;;;;;;;;;;5013905;28;20467;-69
2022/07/13 00:45:28;;;;;;;1.37;1.37;;;;;;;;;;5013744;28;20412;-66
2022/07/13 00:47:54;;;;;;;1.60;1.60;;;;;;;;;;5013891;28;20558;-66
2022/07/13 00:50:21;;;;;;;2.07;1.90;;;;;;;;;;5014102;28;20406;-66
2022/07/13 00:52:47;;;;;;;1.30;1.30;;;;;;;;;;5013995;28;20496;-66
2022/07/13 00:55:13;;;;;;;3.30;1.67;;;;;;;;;;5014133;28;20406;-67
2022/07/13 00:57:39;;;;;;;1.90;1.87;;;;;;;;;;5013879;28;20886;-66
2022/07/13 01:00:10;;;;;;;3.27;1.77;;;;;;;;;;5013502;28;20407;-66
2022/07/13 01:02:37;;;;;;;1.60;1.60;;;;;;;;;;5013278;28;20457;-66
2022/07/13 01:05:03;;;;;;;1.57;1.50;;;;;;;;;;5013615;28;20423;-66
2022/07/13 01:07:32;;;;;;;1.87;1.80;;;;;;;;;;5013749;28;20489;-66
2022/07/13 01:09:58;;;;;;;1.97;1.87;;;;;;;;;;5014061;28;20836;-67
2022/07/13 01:12:24;;;;;;;1.57;1.57;;;;;;;;;;5013750;28;20505;-66
2022/07/13 01:14:50;;;;;;;1.70;1.60;;;;;;;;;;5013832;28;20408;-67
2022/07/13 01:17:16;;;;;;;1.80;1.80;;;;;;;;;;5012839;28;20423;-67
2022/07/13 01:19:42;;;;;;;1.70;1.60;;;;;;;;;;5012064;28;20781;-67
2022/07/13 01:22:09;;;;;;;1.30;1.30;;;;;;;;;;5013538;28;20424;-69
2022/07/13 01:24:35;;;;;;;1.80;1.80;;;;;;;;;;5013739;28;20925;-67
2022/07/13 01:27:01;;;;;;;1.70;1.60;;;;;;;;;;5013564;28;20431;-67
2022/07/13 01:29:28;;;;;;;1.43;1.33;;;;;;;;;;5013328;28;20412;-68
2022/07/13 01:31:59;;;;;;;1.67;1.67;;;;;;;;;;5013345;28;20623;-67
2022/07/13 01:34:25;;;;;;;5.13;1.63;;;;;;;;;;5013470;28;20887;-67
2022/07/13 01:36:51;;;;;;;4.93;1.97;;;;;;;;;;5013536;28;20410;-67
2022/07/13 01:39:16;;;;;;;1.77;1.70;;;;;;;;;;5013294;28;20939;-67
2022/07/13 01:41:42;;;;;;;3.50;1.40;;;;;;;;;;5013212;28;20427;-67
2022/07/13 01:44:08;;;;;;;2.00;1.83;;;;;;;;;;5012212;28;20455;-68
2022/07/13 01:46:34;;;;;;;3.53;1.70;;;;;;;;;;5013242;28;20847;-67
2022/07/13 01:49:00;;;;;;;1.70;1.60;;;;;;;;;;5013519;28;20413;-67
2022/07/13 01:51:26;;;;;;;1.80;1.70;;;;;;;;;;5013322;28;20474;-66
2022/07/13 01:53:52;;;;;;;3.80;2.03;;;;;;;;;;5013288;28;20434;-68
2022/07/13 01:56:18;;;;;;;1.67;1.67;;;;;;;;;;5011994;28;20446;-67
2022/07/13 01:58:44;;;;;;;2.00;1.90;;;;;;;;;;5013191;28;20410;-67
2022/07/13 02:01:10;;;;;;;1.77;1.67;;;;;;;;;;5013423;28;20824;-66
2022/07/13 02:03:36;;;;;;;3.60;1.77;;;;;;;;;;5013246;28;20419;-67
2022/07/13 02:06:03;;;;;;;2.73;1.37;;;;;;;;;;5013172;28;20900;-67
2022/07/13 02:08:29;;;;;;;2.40;1.97;;;;;;;;;;5013396;28;20413;-67
2022/07/13 02:10:55;;;;;;;6.37;1.57;;;;;;;;;;5013121;28;20469;-67
2022/07/13 02:13:21;;;;;;;1.40;1.30;;;;;;;;;;5013025;28;20416;-67
2022/07/13 02:15:47;;;;;;;1.37;1.37;;;;;;;;;;5013457;28;20542;-67
2022/07/13 02:18:13;;;;;;;4.53;1.40;;;;;;;;;;5011812;28;20867;-67
2022/07/13 02:20:39;;;;;;;2.30;2.20;;;;;;;;;;5011827;28;20533;-67
2022/07/13 02:23:06;;;;;;;2.63;1.37;;;;;;;;;;5012700;28;20617;-68
2022/07/13 02:25:37;;;;;;;1.87;1.77;;;;;;;;;;5013051;28;20507;-67
2022/07/13 02:28:03;;;;;;;1.40;1.40;;;;;;;;;;5011935;28;20522;-67
2022/07/13 02:30:29;;;;;;;1.80;1.70;;;;;;;;;;5016164;28;20408;-67
2022/07/13 02:32:55;;;;;;;1.40;1.40;;;;;;;;;;5016515;28;20479;-67
2022/07/13 02:35:21;;;;;;;1.70;1.60;;;;;;;;;;5016587;28;20459;-66
2022/07/13 02:37:46;;;;;;;1.60;1.60;;;;;;;;;;5016693;28;20759;-67
2022/07/13 02:40:12;;;;;;;1.80;1.70;;;;;;;;;;5016470;28;20413;-67
2022/07/13 02:42:39;;;;;;;1.73;1.73;;;;;;;;;;5016410;28;20409;-67
2022/07/13 02:45:06;;;;;;;1.60;1.60;;;;;;;;;;5016478;28;20741;-67
2022/07/13 02:47:32;;;;;;;1.70;1.70;;;;;;;;;;5016144;28;20476;-66
2022/07/13 02:49:58;;;;;;;1.30;1.30;;;;;;;;;;5016224;28;20844;-67
2022/07/13 02:52:24;;;;;;;4.67;1.90;;;;;;;;;;5016148;28;20475;-67
2022/07/13 02:54:50;;;;;;;1.97;1.80;;;;;;;;;;5016354;28;20876;-67
2022/07/13 02:57:16;;;;;;;1.50;1.50;;;;;;;;;;5014938;28;20954;-67
2022/07/13 02:59:42;;;;;;;1.57;1.47;;;;;;;;;;5016048;28;20975;-67
2022/07/13 03:02:08;;;;;;;1.70;1.60;;;;;;;;;;5016230;28;20449;-66
2022/07/13 03:04:34;;;;;;;1.23;1.23;;;;;;;;;;5016052;28;20914;-67
2022/07/13 03:07:00;;;;;;;2.10;1.50;;;;;;;;;;5014825;28;20440;-67
2022/07/13 03:09:26;;;;;;;1.70;1.70;;;;;;;;;;5014749;28;20413;-67
2022/07/13 03:11:52;;;;;;;1.50;1.50;;;;;;;;;;5015762;28;20481;-66
2022/07/13 03:14:18;;;;;;;1.47;1.47;;;;;;;;;;5016027;28;20416;-66
2022/07/13 03:16:44;;;;;;;1.43;1.43;;;;;;;;;;5015811;28;20428;-67
2022/07/13 03:19:10;;;;;;;1.70;1.70;;;;;;;;;;5015607;28;20408;-66
2022/07/13 03:21:36;;;;;;;2.53;1.70;;;;;;;;;;5015653;28;20825;-67
2022/07/13 03:24:03;;;;;;;1.20;1.20;;;;;;;;;;5015621;28;20419;-67
2022/07/13 03:26:28;;;;;;;1.43;1.43;;;;;;;;;;5015619;28;20795;-66
2022/07/13 03:28:54;;;;;;;1.93;1.80;;;;;;;;;;5014260;28;20413;-67
2022/07/13 03:31:20;;;;;;;3.63;1.50;;;;;;;;;;5015418;28;20468;-67
2022/07/13 03:33:46;;;;;;;1.50;1.50;;;;;;;;;;5015460;28;20911;-67
2022/07/13 03:36:13;;;;;;;1.47;1.47;;;;;;;;;;5015255;28;20407;-67
2022/07/13 03:38:39;;;;;;;1.80;1.70;;;;;;;;;;5015119;28;20494;-67
2022/07/13 03:41:05;;;;;;;1.90;1.80;;;;;;;;;;5014969;28;20418;-67
2022/07/13 03:43:31;;;;;;;1.83;1.83;;;;;;;;;;5015327;28;20543;-67
2022/07/13 03:45:57;;;;;;;1.73;1.70;;;;;;;;;;5013943;28;20968;-67
2022/07/13 03:48:23;;;;;;;1.90;1.80;;;;;;;;;;5015270;28;20463;-66
2022/07/13 03:50:50;;;;;;;2.10;2.00;;;;;;;;;;5015037;28;20507;-67
2022/07/13 03:53:16;;;;;;;2.40;1.40;;;;;;;;;;5015023;28;20411;-67
2022/07/13 03:55:43;;;;;;;2.13;2.03;;;;;;;;;;5015184;28;20419;-67
2022/07/13 03:58:10;;;;;;;2.13;2.03;;;;;;;;;;5015047;28;20439;-66
2022/07/13 04:00:36;;;;;;;2.53;1.60;;;;;;;;;;5014799;28;20913;-66
2022/07/13 04:03:02;;;;;;;2.57;2.10;;;;;;;;;;5014955;28;20915;-66
2022/07/13 04:05:28;;;;;;;14.03;2.47;;;;;;;;;;5014993;28;20463;-66
2022/07/13 04:07:54;;;;;;;2.50;2.17;;;;;;;;;;5014910;28;20957;-66
2022/07/13 04:10:21;;;;;;;3.70;2.00;;;;;;;;;;5014926;28;20408;-66
2022/07/13 04:12:47;;;;;;;2.13;2.13;;;;;;;;;;5014523;28;20475;-67
2022/07/13 04:15:13;;;;;;;6.00;2.10;;;;;;;;;;5013460;28;20428;-66
2022/07/13 04:17:39;;;;;;;4.03;1.93;;;;;;;;;;5013512;28;20482;-67
2022/07/13 04:20:06;;;;;;;2.67;2.43;;;;;;;;;;5014660;28;20667;-66
2022/07/13 04:22:32;;;;;;;3.57;1.83;;;;;;;;;;5014117;28;20412;-66
2022/07/13 04:24:58;;;;;;;5.27;1.70;;;;;;;;;;5013750;28;20412;-66
2022/07/13 04:27:24;;;;;;;2.00;2.00;;;;;;;;;;5014313;28;20424;-66
2022/07/13 04:29:50;;;;;;;2.80;2.00;;;;;;;;;;5013050;28;20420;-66
2022/07/13 04:32:16;;;;;;;2.70;1.80;;;;;;;;;;5014559;28;20468;-66
2022/07/13 04:34:42;;;;;;;2.40;2.30;;;;;;;;;;5014302;28;20953;-66
2022/07/13 04:37:08;;;;;;;2.00;1.70;;;;;;;;;;5014291;28;20439;-66
2022/07/13 04:39:34;;;;;;;2.03;1.93;;;;;;;;;;5014340;28;20409;-67
2022/07/13 04:42:00;;;;;;;2.23;2.13;;;;;;;;;;5014037;28;20446;-67
2022/07/13 04:44:26;;;;;;;1.90;1.90;;;;;;;;;;5014342;28;20409;-67
2022/07/13 04:46:53;;;;;;;2.00;2.00;;;;;;;;;;5013982;28;20456;-67
2022/07/13 04:49:22;;;;;;;2.87;2.67;;;;;;;;;;5014047;28;20460;-67
2022/07/13 04:51:48;;;;;;;4.40;2.60;;;;;;;;;;5013228;28;20469;-67
2022/07/13 04:54:21;;;;;;;1.97;1.87;;;;;;;;;;5013856;28;20447;-67
2022/07/13 04:56:47;;;;;;;2.03;1.93;;;;;;;;;;5013750;28;20745;-67
2022/07/13 04:59:13;;;;;;;4.20;2.00;;;;;;;;;;5014169;28;20442;-67
2022/07/13 05:01:40;;;;;;;3.63;1.93;;;;;;;;;;5013901;28;20437;-67
2022/07/13 05:04:06;;;;;;;2.13;2.03;;;;;;;;;;5013936;28;20405;-67
2022/07/13 05:06:32;;;;;;;3.70;2.17;;;;;;;;;;5014002;28;20908;-67
2022/07/13 05:08:58;;;;;;;2.23;2.10;;;;;;;;;;5013751;28;20394;-67
2022/07/13 05:11:24;;;;;;;2.50;2.40;;;;;;;;;;5013564;28;20480;-67
2022/07/13 05:13:50;;;;;;;3.00;2.90;;;;;;;;;;5013601;28;20403;-67
2022/07/13 05:16:16;;;;;;;2.67;2.57;;;;;;;;;;5013759;28;20559;-67
2022/07/13 05:18:42;;;;;;;3.23;2.60;;;;;;;;;;5013602;28;20839;-67
2022/07/13 05:21:10;;;;;;;2.80;2.80;;;;;;;;;;5013677;28;20496;-67
2022/07/13 05:23:36;;;;;;;2.37;2.10;;;;;;;;;;5013485;28;20467;-67
2022/07/13 05:26:02;;;;;;;8.13;2.63;;;;;;;;;;5013450;28;20421;-67
2022/07/13 05:28:28;;;;;;;3.20;2.90;;;;;;;;;;5013511;28;20410;-67
2022/07/13 05:30:54;;;;;;;5.20;2.70;;;;;;;;;;5013378;28;20509;-67
2022/07/13 05:33:20;;;;;;;5.13;4.63;;;;;;;;;;5013367;28;20418;-67
2022/07/13 05:35:46;;;;;;;3.40;3.10;;;;;;;;;;5013640;28;20778;-67
2022/07/13 05:38:13;;;;;;;5.50;3.23;;;;;;;;;;5013551;28;20834;-67
2022/07/13 05:40:39;;;;;;;6.23;4.70;;;;;;;;;;5013151;28;20409;-67
2022/07/13 05:43:06;;;;;;;4.00;3.70;;;;;;;;;;5013647;28;20414;-67
2022/07/13 05:45:31;;;;;;;8.83;8.03;;;;;;;;;;5013535;28;20404;-67
2022/07/13 05:47:57;;;;;;;3.70;3.50;;;;;;;;;;5013246;28;20470;-67
2022/07/13 05:50:23;;;;;;;8.00;7.23;;;;;;;;;;5012188;28;20793;-67
2022/07/13 05:52:49;;;;;;;8.53;3.70;;;;;;;;;;5013025;28;20474;-67
2022/07/13 05:55:15;;;;;;;4.13;3.73;;;;;;;;;;5013017;28;20410;-67
2022/07/13 05:57:42;;;;;;;7.70;3.43;;;;;;;;;;5013310;28;20411;-67
2022/07/13 06:00:12;;;;;;;3.63;3.30;;;;;;;;;;5013141;28;20904;-67
2022/07/13 06:02:44;;;;;;;3.70;3.37;;;;;;;;;;5012291;28;20432;-67
2022/07/13 06:05:10;;;;;;;3.80;3.50;;;;;;;;;;5016818;28;20439;-67
2022/07/13 06:07:36;;;;;;;17.30;7.30;;;;;;;;;;5017058;28;20416;-68
2022/07/13 06:10:04;;;;;;;3.33;3.23;;;;;;;;;;5016934;28;20414;-68
2022/07/13 06:12:30;;;;;;;5.53;5.07;;;;;;;;;;5016765;28;20534;-68
2022/07/13 06:14:56;;;;;;;3.50;3.20;;;;;;;;;;5017067;28;20403;-67
2022/07/13 06:17:22;;;;;;;2.97;2.80;;;;;;;;;;5016729;28;20406;-67
2022/07/13 06:19:49;;;;;;;4.13;2.80;;;;;;;;;;5015505;28;20419;-67
2022/07/13 06:22:15;;;;;;;2.00;2.00;;;;;;;;;;5016775;28;20417;-67
2022/07/13 06:24:41;;;;;;;2.97;2.77;;;;;;;;;;5015267;28;20417;-67
2022/07/13 06:27:07;;;;;;;3.27;2.13;;;;;;;;;;5016435;28;20431;-68
2022/07/13 06:29:33;;;;;;;5.50;2.40;;;;;;;;;;5015359;28;20424;-69
2022/07/13 06:32:00;;;;;;;2.50;2.10;;;;;;;;;;5016938;28;20603;-67
2022/07/13 06:34:26;;;;;;;7.43;5.70;;;;;;;;;;5016725;28;20401;-67
2022/07/13 06:36:52;;;;;;;2.40;2.20;;;;;;;;;;5016695;28;20413;-67
2022/07/13 06:39:18;;;;;;;5.20;2.10;;;;;;;;;;5016594;28;20413;-67
2022/07/13 06:41:45;;;;;;;2.30;2.07;;;;;;;;;;5016448;28;20456;-67
2022/07/13 06:44:11;;;;;;;2.10;2.00;;;;;;;;;;5016591;28;20402;-67
2022/07/13 06:46:37;;;;;;;2.40;2.20;;;;;;;;;;5016403;28;20449;-67
2022/07/13 06:49:03;;;;;;;1.90;1.90;;;;;;;;;;5016296;28;20468;-68
2022/07/13 06:51:29;;;;;;;3.03;1.73;;;;;;;;;;5016238;28;20459;-68
2022/07/13 06:53:55;;;;;;;2.20;2.10;;;;;;;;;;5016327;28;20947;-67
2022/07/13 06:56:21;;;;;;;2.33;2.23;;;;;;;;;;5016294;28;20445;-69
2022/07/13 06:58:47;;;;;;;4.03;3.63;;;;;;;;;;5016468;28;20417;-68
2022/07/13 07:01:13;;;;;;;7.50;3.67;;;;;;;;;;5016487;28;20412;-67
2022/07/13 07:03:39;;;;;;;2.10;2.10;;;;;;;;;;5016222;28;20412;-68
2022/07/13 07:06:06;;;;;;;2.23;1.83;;;;;;;;;;5015992;28;20956;-68
2022/07/13 07:08:32;;;;;;;3.00;1.90;;;;;;;;;;5016131;28;20811;-67
2022/07/13 07:10:57;;;;;;;3.43;2.00;;;;;;;;;;5015952;28;20514;-66
2022/07/13 07:13:23;;;;;;;2.10;2.00;;;;;;;;;;5016122;28;20412;-66
2022/07/13 07:15:50;;;;;;;1.70;1.70;;;;;;;;;;5015181;28;20422;-68
2022/07/13 07:18:16;;;;;;;3.17;1.60;;;;;;;;;;5014716;28;20435;-68
2022/07/13 07:20:42;;;;;;;3.13;2.00;;;;;;;;;;5015858;28;20477;-67
2022/07/13 07:23:08;;;;;;;2.10;2.00;;;;;;;;;;5015911;28;20420;-68
2022/07/13 07:25:34;;;;;;;2.20;2.10;;;;;;;;;;5015767;28;20913;-67
2022/07/13 07:28:00;;;;;;;3.60;1.50;;;;;;;;;;5015734;28;20424;-67
2022/07/13 07:30:26;;;;;;;1.87;1.80;;;;;;;;;;5015628;28;20910;-68
2022/07/13 07:32:52;;;;;;;1.73;1.63;;;;;;;;;;5015627;28;20466;-68
2022/07/13 07:35:18;;;;;;;1.90;1.90;;;;;;;;;;5015692;28;20445;-67
2022/07/13 07:37:44;;;;;;;2.20;1.30;;;;;;;;;;5015678;28;20394;-67
2022/07/13 07:40:11;;;;;;;1.60;1.50;;;;;;;;;;5015468;28;20400;-67
2022/07/13 07:42:37;;;;;;;1.80;1.70;;;;;;;;;;5015467;28;20411;-68
2022/07/13 07:45:06;;;;;;;1.70;1.70;;;;;;;;;;5015383;28;20412;-68
2022/07/13 07:47:32;;;;;;;1.70;1.60;;;;;;;;;;5015193;28;20546;-68
2022/07/13 07:49:58;;;;;;;8.10;3.03;;;;;;;;;;5015308;28;20442;-66
2022/07/13 07:52:24;;;;;;;7.80;1.90;;;;;;;;;;5015228;28;20467;-65
2022/07/13 07:54:50;;;;;;;2.60;2.07;;;;;;;;;;5015186;28;20783;-66
2022/07/13 07:57:16;;;;;;;2.77;2.20;;;;;;;;;;5015142;28;20443;-66
2022/07/13 07:59:42;;;;;;;4.70;1.60;;;;;;;;;;5015214;28;20487;-66
2022/07/13 08:02:09;;;;;;;1.93;1.70;;;;;;;;;;5015164;28;20400;-66
2022/07/13 08:04:35;;;;;;;3.83;1.57;;;;;;;;;;5015271;28;20768;-68
2022/07/13 08:07:01;;;;;;;8.00;1.73;;;;;;;;;;5013690;28;20421;-67
2022/07/13 08:09:27;;;;;;;1.73;1.67;;;;;;;;;;5014997;28;20413;-67
2022/07/13 08:11:53;;;;;;;3.53;1.50;;;;;;;;;;5014810;28;21105;-67
2022/07/13 08:14:21;;;;;;;1.67;1.57;;;;;;;;;;5014779;28;20814;-66
2022/07/13 08:16:47;;;;;;;1.20;1.20;;;;;;;;;;5014722;28;20941;-67
2022/07/13 08:19:13;;;;;;;1.40;1.40;;;;;;;;;;5014645;28;20422;-66
2022/07/13 08:21:39;;;;;;;1.20;1.20;;;;;;;;;;5014815;28;20781;-66
2022/07/13 08:24:05;;;;;;;1.50;1.40;;;;;;;;;;5013519;28;20424;-66
2022/07/13 08:26:32;;;;;;;1.00;1.00;;;;;;;;;;5014549;28;20431;-67
2022/07/13 08:28:59;;;;;;;1.73;1.63;;;;;;;;;;5014639;28;20413;-69
2022/07/13 08:31:26;;;;;;;2.13;1.77;;;;;;;;;;5013209;28;20467;-66
2022/07/13 08:39:22;;;;;;;2.70;1.50;;;;;;;;;;5014656;28;20475;-68
2022/07/13 08:41:49;;;;;;;4.63;1.50;;;;;;;;;;5014399;28;20435;-67
2022/07/13 08:44:15;;;;;;;1.20;1.20;;;;;;;;;;5014410;28;20465;-67
2022/07/13 08:46:41;;;;;;;5.73;1.20;;;;;;;;;;5014166;28;20462;-66
2022/07/13 08:49:07;;;;;;;1.10;1.00;;;;;;;;;;5014293;28;20454;-67
2022/07/13 08:51:34;;;;;;;1.17;1.00;;;;;;;;;;5012923;28;20554;-67
2022/07/13 08:54:01;;;;;;;3.83;1.03;;;;;;;;;;5014229;28;20440;-67
2022/07/13 08:56:27;;;;;;;2.50;1.10;;;;;;;;;;5014370;28;20431;-67
2022/07/13 08:58:53;;;;;;;1.13;1.00;;;;;;;;;;5014398;28;20403;-66
2022/07/13 09:01:19;;;;;;;1.20;1.10;;;;;;;;;;5014096;28;20499;-67
2022/07/13 09:03:46;;;;;;;9.70;1.03;;;;;;;;;;5013949;28;20401;-67
2022/07/13 09:06:30;;;;;;;1.30;1.30;;;;;;;;;;5014081;28;20750;-68
2022/07/13 09:08:56;;;;;;;1.67;1.07;;;;;;;;;;5013975;28;20412;-67
2022/07/13 09:11:24;;;;;;;1.50;1.40;;;;;;;;;;5013987;28;20483;-67
2022/07/13 09:13:50;;;;;;;1.20;0.90;;;;;;;;;;5012626;28;20794;-67
2022/07/13 09:16:26;;;;;;;1.27;1.03;;;;;;;;;;5013939;28;20428;-67
2022/07/13 09:18:52;;;;;;;1.63;1.30;;;;;;;;;;5013818;28;20894;-67
2022/07/13 09:21:19;;;;;;;1.10;1.10;;;;;;;;;;5013790;28;20409;-67
2022/07/13 09:23:47;;;;;;;0.87;0.87;;;;;;;;;;5013793;28;20397;-67
2022/07/13 09:26:13;;;;;;;0.70;0.70;;;;;;;;;;5013704;28;20413;-67
2022/07/13 09:28:43;;;;;;;2.10;0.83;;;;;;;;;;5013671;28;20404;-66
2022/07/13 09:31:09;;;;;;;2.23;0.83;;;;;;;;;;5013668;28;20968;-66
2022/07/13 09:33:36;;;;;;;8.23;1.23;;;;;;;;;;5013800;28;20991;-66
2022/07/13 09:36:13;;;;;;;1.83;1.20;;;;;;;;;;5013637;28;20412;-67
2022/07/13 09:38:41;;;;;;;1.07;1.07;;;;;;;;;;5017906;28;20420;-67
2022/07/13 09:41:16;;;;;;;0.80;0.80;;;;;;;;;;5020367;28;20424;-67
2022/07/13 09:46:53;;;;;;;2.07;0.90;;;;;;;;;;5020176;28;20435;-66
2022/07/13 09:49:31;;;;;;;2.30;1.20;;;;;;;;;;5020293;28;20409;-66
2022/07/13 09:51:58;;;;;;;0.90;0.90;;;;;;;;;;5018716;28;21005;-66
2022/07/13 09:54:26;;;;;;;1.10;0.90;;;;;;;;;;5020346;28;20504;-66
2022/07/13 09:56:53;;;;;;;1.23;0.90;;;;;;;;;;5020167;28;20494;-67
2022/07/13 09:59:19;;;;;;;0.97;0.97;;;;;;;;;;5019956;28;20946;-67
2022/07/13 10:01:46;;;;;;;0.93;0.93;;;;;;;;;;5019830;28;20413;-66
2022/07/13 10:04:13;;;;;;;4.43;0.77;;;;;;;;;;5019981;28;20503;-67
2022/07/13 10:06:39;;;;;;;1.73;0.60;;;;;;;;;;5019904;28;20484;-66
2022/07/13 10:09:05;;;;;;;1.07;1.07;;;;;;;;;;5019933;28;20466;-67
2022/07/13 10:11:31;;;;;;;1.00;0.90;;;;;;;;;;5019774;28;20966;-66
2022/07/13 10:13:58;;;;;;;1.40;0.80;;;;;;;;;;5019932;28;20408;-66
2022/07/13 10:16:27;;;;;;;2.37;0.80;;;;;;;;;;5019851;28;20417;-67
2022/07/13 10:18:55;;;;;;;0.70;0.70;;;;;;;;;;5019716;28;20540;-66
2022/07/13 10:21:27;;;;;;;1.20;0.70;;;;;;;;;;5019725;28;20405;-66
2022/07/13 10:23:53;;;;;;;0.80;0.80;;;;;;;;;;5019745;28;20441;-66
2022/07/13 10:26:28;;;;;;;1.20;1.20;;;;;;;;;;5019661;28;20519;-66
2022/07/13 10:29:04;;;;;;;3.63;0.90;;;;;;;;;;5018438;28;20795;-66
2022/07/13 10:31:31;;;;;;;1.00;1.00;;;;;;;;;;5019433;28;20456;-65
2022/07/13 10:33:57;;;;;;;0.80;0.80;;;;;;;;;;5019626;28;20903;-66
2022/07/13 10:36:42;;;;;;;0.73;0.73;;;;;;;;;;5019630;28;20784;-66
2022/07/13 10:39:10;;;;;;;0.70;0.70;;;;;;;;;;5019595;28;20401;-67
2022/07/13 10:41:55;;;;;;;0.80;0.80;;;;;;;;;;5019550;28;20412;-66
2022/07/13 10:44:30;;;;;;;0.93;0.93;;;;;;;;;;5018430;28;20779;-66
2022/07/13 10:46:56;;;;;;;2.43;0.70;;;;;;;;;;5019482;28;21042;-67
2022/07/13 10:49:32;;;;;;;1.03;1.03;;;;;;;;;;5017186;28;20424;-66
2022/07/13 10:52:17;;;;;;;0.70;0.70;;;;;;;;;;5016394;28;20463;-67
2022/07/13 10:55:02;;;;;;;2.50;0.70;;;;;;;;;;5016447;28;20405;-66
2022/07/13 10:57:28;;;;;;;3.93;1.10;;;;;;;;;;5016330;28;20424;-66
2022/07/13 11:00:00;;;;;;;0.40;0.40;;;;;;;;;;5016303;28;20397;-67
2022/07/13 11:02:50;;;;;;;0.70;0.70;;;;;;;;;;5016263;28;20919;-66
2022/07/13 11:05:17;;;;;;;3.80;0.90;;;;;;;;;;5016489;28;20508;-67
2022/07/13 11:07:50;;;;;;;6.30;1.03;;;;;;;;;;5016103;28;20862;-66
2022/07/13 11:10:22;;;;;;;4.70;2.67;;;;;;;;;;5016091;28;20424;-66
2022/07/13 11:13:14;;;;;;;1.83;1.03;;;;;;;;;;5015973;28;20507;-67
2022/07/13 11:15:43;;;;;;;5.30;1.20;;;;;;;;;;5013978;28;20937;-66
2022/07/13 11:18:22;;;;;;;10.13;1.50;;;;;;;;;;5016044;28;20544;-66
2022/07/13 11:21:23;;;;;;;2.30;1.13;;;;;;;;;;5015887;28;20405;-67
2022/07/13 11:26:51;;;;;;;2.47;0.83;;;;;;;;;;5016059;28;20926;-66
2022/07/13 11:29:17;;;;;;;3.80;0.70;;;;;;;;;;5015771;28;20409;-66
2022/07/13 11:31:44;;;;;;;0.60;0.60;;;;;;;;;;5015685;28;20469;-66
2022/07/13 11:34:10;;;;;;;4.43;1.57;;;;;;;;;;5015697;28;20876;-67
2022/07/13 11:36:38;;;;;;;1.17;0.80;;;;;;;;;;5014363;28;20432;-66
2022/07/13 11:39:04;;;;;;;1.57;0.90;;;;;;;;;;5015587;28;20759;-67
2022/07/13 11:41:30;;;;;;;0.60;0.60;;;;;;;;;;5015479;28;20413;-67
2022/07/13 11:43:56;;;;;;;1.00;0.67;;;;;;;;;;5015455;28;20445;-67
2022/07/13 11:46:25;;;;;;;2.37;0.90;;;;;;;;;;5015419;28;20503;-67
2022/07/13 11:48:58;;;;;;;7.70;1.03;;;;;;;;;;5015255;28;20461;-67
2022/07/13 11:51:24;;;;;;;1.03;0.60;;;;;;;;;;5015299;28;21010;-66
2022/07/13 11:53:50;;;;;;;1.27;0.80;;;;;;;;;;5015293;28;20444;-67
2022/07/13 11:56:16;;;;;;;1.47;0.90;;;;;;;;;;5015297;28;20429;-67
2022/07/13 11:58:45;;;;;;;4.33;0.97;;;;;;;;;;5015117;28;20417;-66
2022/07/13 12:01:18;;;;;;;6.10;0.70;;;;;;;;;;5014872;28;20405;-66
2022/07/13 12:03:51;;;;;;;0.70;0.70;;;;;;;;;;5015104;28;20409;-66
2022/07/13 12:06:18;;;;;;;2.30;0.60;;;;;;;;;;5015175;28;20783;-67
2022/07/13 12:08:45;;;;;;;1.07;0.70;;;;;;;;;;5015103;28;20412;-67
2022/07/13 12:11:15;;;;;;;0.87;0.80;;;;;;;;;;5014755;28;20412;-67
2022/07/13 12:13:42;;;;;;;0.70;0.70;;;;;;;;;;5014891;28;20473;-66
2022/07/13 12:16:10;;;;;;;1.67;0.50;;;;;;;;;;5014858;28;20405;-67
2022/07/13 12:18:55;;;;;;;0.70;0.70;;;;;;;;;;5014889;28;20416;-66
2022/07/13 12:21:21;;;;;;;1.13;0.70;;;;;;;;;;5014716;28;20397;-66
2022/07/13 12:23:48;;;;;;;2.97;0.57;;;;;;;;;;5014774;28;20408;-66
2022/07/13 12:26:14;;;;;;;3.03;0.80;;;;;;;;;;5014894;28;20421;-67
2022/07/13 12:28:42;;;;;;;1.60;0.73;;;;;;;;;;5014590;28;20899;-66
2022/07/13 12:31:08;;;;;;;0.60;0.60;;;;;;;;;;5014524;28;20828;-67
2022/07/13 12:33:44;;;;;;;2.20;0.50;;;;;;;;;;5014540;28;20409;-67
2022/07/13 12:36:10;;;;;;;0.40;0.40;;;;;;;;;;5014304;28;20837;-68
2022/07/13 12:38:52;;;;;;;3.33;0.80;;;;;;;;;;5014689;28;20413;-68
2022/07/13 12:41:26;;;;;;;0.40;0.40;;;;;;;;;;5014563;28;20428;-67
2022/07/13 12:43:55;;;;;;;1.63;0.37;;;;;;;;;;5013061;28;20419;-68
2022/07/13 12:46:21;;;;;;;1.23;0.57;;;;;;;;;;5014246;28;20444;-67
2022/07/13 12:48:58;;;;;;;0.50;0.50;;;;;;;;;;5014057;28;20468;-71
2022/07/13 12:51:24;;;;;;;2.10;0.50;;;;;;;;;;5014096;28;20464;-66
2022/07/13 12:53:53;;;;;;;1.73;0.70;;;;;;;;;;5014153;28;20460;-67
2022/07/13 12:56:20;;;;;;;2.00;0.53;;;;;;;;;;5014391;28;20412;-66
2022/07/13 12:58:48;;;;;;;1.23;0.50;;;;;;;;;;5014120;28;20412;-66
2022/07/13 13:01:30;;;;;;;1.70;0.50;;;;;;;;;;5014179;28;20416;-66
2022/07/13 13:04:01;;;;;;;0.50;0.50;;;;;;;;;;5014010;28;20409;-66
2022/07/13 13:06:27;;;;;;;0.40;0.40;;;;;;;;;;5014105;28;20440;-66
2022/07/13 13:09:06;;;;;;;0.40;0.40;;;;;;;;;;5013972;28;20466;-65
2022/07/13 13:11:33;;;;;;;0.40;0.40;;;;;;;;;;5013874;28;20468;-66
2022/07/13 13:13:59;;;;;;;0.93;0.50;;;;;;;;;;5013505;28;20425;-67
2022/07/13 13:16:25;;;;;;;1.13;0.60;;;;;;;;;;5013854;28;20906;-65
2022/07/13 13:18:51;;;;;;;1.43;0.60;;;;;;;;;;5013833;28;20170;-65
2022/07/13 13:21:17;;;;;;;4.10;0.50;;;;;;;;;;5013712;28;20500;-66
2022/07/13 13:23:43;;;;;;;3.47;0.67;;;;;;;;;;5013602;28;20413;-66
2022/07/13 13:26:09;;;;;;;0.83;0.60;;;;;;;;;;5013571;28;20925;-66
2022/07/13 13:31:20;;;;;;;1.67;0.50;;;;;;;;;;5013875;28;20554;-65
2022/07/13 13:33:46;;;;;;;1.83;0.73;;;;;;;;;;5013620;28;20416;-66
2022/07/13 13:36:12;;;;;;;1.37;0.50;;;;;;;;;;5013567;28;20401;-67
2022/07/13 13:38:38;;;;;;;4.23;0.60;;;;;;;;;;5013520;28;20435;-68
2022/07/13 13:41:05;;;;;;;0.50;0.50;;;;;;;;;;5013510;28;20899;-68
2022/07/13 13:43:31;;;;;;;1.57;0.50;;;;;;;;;;5013415;28;20184;-67
2022/07/13 13:45:57;;;;;;;2.00;0.50;;;;;;;;;;5013430;28;20520;-66
2022/07/13 13:48:23;;;;;;;0.50;0.50;;;;;;;;;;5013251;28;20468;-66
2022/07/13 13:50:49;;;;;;;1.70;0.50;;;;;;;;;;5013355;28;20770;-66
2022/07/13 13:53:15;;;;;;;0.80;0.53;;;;;;;;;;5012013;28;20563;-67
2022/07/13 13:55:42;;;;;;;0.50;0.50;;;;;;;;;;5013424;28;20496;-66
2022/07/13 13:58:08;;;;;;;0.60;0.50;;;;;;;;;;5013602;28;20456;-66
2022/07/13 14:00:34;;;;;;;1.70;0.70;;;;;;;;;;5013279;28;20405;-67
2022/07/13 14:03:00;;;;;;;3.30;0.60;;;;;;;;;;5013299;28;20416;-66
2022/07/13 14:05:26;;;;;;;1.40;0.50;;;;;;;;;;5013288;28;20397;-66
2022/07/13 14:07:53;;;;;;;0.70;0.40;;;;;;;;;;5013305;28;20460;-66
2022/07/13 14:10:19;;;;;;;0.50;0.50;;;;;;;;;;5013355;28;20409;-66
2022/07/13 14:12:45;;;;;;;1.23;0.50;;;;;;;;;;5013177;28;20539;-66
2022/07/13 14:15:11;;;;;;;1.37;0.60;;;;;;;;;;5013303;28;20507;-66
2022/07/13 14:17:37;;;;;;;0.60;0.60;;;;;;;;;;5013215;28;20228;-66
2022/07/13 14:20:04;;;;;;;1.90;0.70;;;;;;;;;;5013157;28;20439;-66
2022/07/13 14:22:30;;;;;;;1.83;0.50;;;;;;;;;;5013143;28;20421;-66
2022/07/13 14:24:56;;;;;;;0.70;0.63;;;;;;;;;;5015759;28;20459;-66
2022/07/13 14:27:26;;;;;;;0.50;0.50;;;;;;;;;;5017105;28;20428;-66
2022/07/13 14:29:53;;;;;;;0.60;0.60;;;;;;;;;;5015583;28;20417;-66
2022/07/13 14:32:19;;;;;;;0.60;0.57;;;;;;;;;;5016714;28;20503;-65
2022/07/13 14:34:45;;;;;;;0.40;0.40;;;;;;;;;;5016781;28;20466;-67
2022/07/13 14:37:11;;;;;;;1.53;0.60;;;;;;;;;;5016655;28;20428;-67
2022/07/13 14:39:37;;;;;;;1.13;0.70;;;;;;;;;;5016438;28;20448;-67
2022/07/13 14:42:03;;;;;;;2.30;0.70;;;;;;;;;;5016497;28;20417;-66
2022/07/13 14:44:29;;;;;;;0.93;0.60;;;;;;;;;;5016515;28;20397;-67
2022/07/13 14:46:55;;;;;;;0.53;0.53;;;;;;;;;;5016344;28;20517;-67
2022/07/13 14:49:21;;;;;;;1.03;0.50;;;;;;;;;;5016463;28;20178;-67
2022/07/13 14:51:47;;;;;;;0.90;0.53;;;;;;;;;;5016328;28;20460;-67
2022/07/13 14:54:13;;;;;;;1.63;0.57;;;;;;;;;;5016410;28;20498;-67
2022/07/13 14:56:39;;;;;;;1.80;0.50;;;;;;;;;;5016226;28;20409;-67
2022/07/13 14:59:05;;;;;;;1.23;0.60;;;;;;;;;;5016285;28;20899;-67